sensor_id;sensor_type;location;lat;lon;timestamp;temperature;humidity
70947;DHT22;58605;48.700;8.760;2023-08-06T00:01:47;13.10;89.60
70947;DHT22;58605;48.700;8.760;2023-08-06T00:04:13;13.10;89.70
70947;DHT22;58605;48.700;8.760;2023-08-06T00:06:41;13.20;88.90
70947;DHT22;58605;48.700;8.760;2023-08-06T00:09:07;13.20;88.20
70947;DHT22;58605;48.700;8.760;2023-08-06T00:11:34;13.40;88.10
70947;DHT22;58605;48.700;8.760;2023-08-06T00:14:00;13.70;87.50
70947;DHT22;58605;48.700;8.760;2023-08-06T00:16:26;14.00;87.10
70947;DHT22;58605;48.700;8.760;2023-08-06T00:18:53;14.10;86.10
70947;DHT22;58605;48.700;8.760;2023-08-06T00:21:19;14.00;85.80
70947;DHT22;58605;48.700;8.760;2023-08-06T00:23:47;13.90;85.70
70947;DHT22;58605;48.700;8.760;2023-08-06T00:26:13;13.70;85.50
70947;DHT22;58605;48.700;8.760;2023-08-06T00:28:39;13.60;85.50
70947;DHT22;58605;48.700;8.760;2023-08-06T00:31:06;13.70;86.10
70947;DHT22;58605;48.700;8.760;2023-08-06T00:33:32;13.80;85.80
70947;DHT22;58605;48.700;8.760;2023-08-06T00:35:58;14.00;85.40
70947;DHT22;58605;48.700;8.760;2023-08-06T00:38:24;14.20;84.80
70947;DHT22;58605;48.700;8.760;2023-08-06T00:40:52;14.40;84.10
70947;DHT22;58605;48.700;8.760;2023-08-06T00:43:19;14.20;83.00
70947;DHT22;58605;48.700;8.760;2023-08-06T00:45:45;13.80;85.00
70947;DHT22;58605;48.700;8.760;2023-08-06T00:48:12;13.40;86.20
70947;DHT22;58605;48.700;8.760;2023-08-06T00:50:38;13.20;87.80
70947;DHT22;58605;48.700;8.760;2023-08-06T00:53:05;12.90;87.60
70947;DHT22;58605;48.700;8.760;2023-08-06T00:55:31;12.80;87.80
70947;DHT22;58605;48.700;8.760;2023-08-06T00:58:07;12.60;87.90
70947;DHT22;58605;48.700;8.760;2023-08-06T01:00:33;12.60;89.00
70947;DHT22;58605;48.700;8.760;2023-08-06T01:02:59;12.50;89.80
70947;DHT22;58605;48.700;8.760;2023-08-06T01:05:26;12.60;90.10
70947;DHT22;58605;48.700;8.760;2023-08-06T01:08:06;12.60;90.20
70947;DHT22;58605;48.700;8.760;2023-08-06T01:10:44;12.40;90.00
70947;DHT22;58605;48.700;8.760;2023-08-06T01:13:19;12.20;89.90
70947;DHT22;58605;48.700;8.760;2023-08-06T01:15:50;12.10;90.30
70947;DHT22;58605;48.700;8.760;2023-08-06T01:18:20;12.00;90.50
70947;DHT22;58605;48.700;8.760;2023-08-06T01:20:48;11.90;90.80
70947;DHT22;58605;48.700;8.760;2023-08-06T01:23:15;11.80;91.00
70947;DHT22;58605;48.700;8.760;2023-08-06T01:25:56;11.80;91.20
70947;DHT22;58605;48.700;8.760;2023-08-06T01:28:27;11.90;91.00
70947;DHT22;58605;48.700;8.760;2023-08-06T01:31:00;12.10;90.70
70947;DHT22;58605;48.700;8.760;2023-08-06T01:33:28;12.30;90.50
70947;DHT22;58605;48.700;8.760;2023-08-06T01:35:59;12.70;90.40
70947;DHT22;58605;48.700;8.760;2023-08-06T01:38:26;13.00;90.00
70947;DHT22;58605;48.700;8.760;2023-08-06T01:40:54;13.30;89.40
70947;DHT22;58605;48.700;8.760;2023-08-06T01:43:20;13.60;88.50
70947;DHT22;58605;48.700;8.760;2023-08-06T01:45:46;13.90;87.00
70947;DHT22;58605;48.700;8.760;2023-08-06T01:48:12;14.30;86.10
70947;DHT22;58605;48.700;8.760;2023-08-06T01:50:38;14.60;84.50
70947;DHT22;58605;48.700;8.760;2023-08-06T01:53:06;14.80;83.10
70947;DHT22;58605;48.700;8.760;2023-08-06T01:55:32;14.80;82.30
70947;DHT22;58605;48.700;8.760;2023-08-06T01:57:58;14.70;81.80
70947;DHT22;58605;48.700;8.760;2023-08-06T02:00:25;14.80;81.90
70947;DHT22;58605;48.700;8.760;2023-08-06T02:02:51;14.70;82.00
70947;DHT22;58605;48.700;8.760;2023-08-06T02:05:17;14.70;81.90
70947;DHT22;58605;48.700;8.760;2023-08-06T02:07:43;14.60;82.30
70947;DHT22;58605;48.700;8.760;2023-08-06T02:10:11;14.70;81.70
70947;DHT22;58605;48.700;8.760;2023-08-06T02:12:37;14.80;82.00
70947;DHT22;58605;48.700;8.760;2023-08-06T02:15:04;14.90;82.10
70947;DHT22;58605;48.700;8.760;2023-08-06T02:17:30;15.10;81.30
70947;DHT22;58605;48.700;8.760;2023-08-06T02:19:56;15.40;80.00
70947;DHT22;58605;48.700;8.760;2023-08-06T02:22:22;15.30;79.80
70947;DHT22;58605;48.700;8.760;2023-08-06T02:24:49;15.30;80.10
70947;DHT22;58605;48.700;8.760;2023-08-06T02:27:17;15.40;79.30
70947;DHT22;58605;48.700;8.760;2023-08-06T02:29:43;15.50;79.90
70947;DHT22;58605;48.700;8.760;2023-08-06T02:32:10;15.40;79.30
70947;DHT22;58605;48.700;8.760;2023-08-06T02:34:36;15.40;79.80
70947;DHT22;58605;48.700;8.760;2023-08-06T02:37:02;15.60;79.30
70947;DHT22;58605;48.700;8.760;2023-08-06T02:39:28;15.60;79.10
70947;DHT22;58605;48.700;8.760;2023-08-06T02:41:54;15.60;78.80
70947;DHT22;58605;48.700;8.760;2023-08-06T02:44:21;15.50;79.00
70947;DHT22;58605;48.700;8.760;2023-08-06T02:46:48;15.50;79.40
70947;DHT22;58605;48.700;8.760;2023-08-06T02:49:14;15.50;79.70
70947;DHT22;58605;48.700;8.760;2023-08-06T02:51:40;15.50;79.60
70947;DHT22;58605;48.700;8.760;2023-08-06T02:54:06;15.20;78.80
70947;DHT22;58605;48.700;8.760;2023-08-06T02:56:32;14.90;80.10
70947;DHT22;58605;48.700;8.760;2023-08-06T02:58:58;14.90;80.70
70947;DHT22;58605;48.700;8.760;2023-08-06T03:01:25;15.00;80.90
70947;DHT22;58605;48.700;8.760;2023-08-06T03:03:52;15.00;81.10
70947;DHT22;58605;48.700;8.760;2023-08-06T03:06:18;15.10;81.50
70947;DHT22;58605;48.700;8.760;2023-08-06T03:08:44;15.20;81.60
70947;DHT22;58605;48.700;8.760;2023-08-06T03:11:10;15.40;81.20
70947;DHT22;58605;48.700;8.760;2023-08-06T03:13:36;15.60;80.80
70947;DHT22;58605;48.700;8.760;2023-08-06T03:16:03;15.80;79.90
70947;DHT22;58605;48.700;8.760;2023-08-06T03:18:30;15.90;79.20
70947;DHT22;58605;48.700;8.760;2023-08-06T03:20:57;16.00;78.50
70947;DHT22;58605;48.700;8.760;2023-08-06T03:23:23;16.00;78.70
70947;DHT22;58605;48.700;8.760;2023-08-06T03:25:49;16.10;79.00
70947;DHT22;58605;48.700;8.760;2023-08-06T03:28:15;16.10;78.60
70947;DHT22;58605;48.700;8.760;2023-08-06T03:30:42;16.20;78.80
70947;DHT22;58605;48.700;8.760;2023-08-06T03:33:08;16.20;78.40
70947;DHT22;58605;48.700;8.760;2023-08-06T03:35:35;16.30;78.30
70947;DHT22;58605;48.700;8.760;2023-08-06T03:38:01;16.30;78.30
70947;DHT22;58605;48.700;8.760;2023-08-06T03:40:27;16.40;78.20
70947;DHT22;58605;48.700;8.760;2023-08-06T03:42:53;16.60;77.90
70947;DHT22;58605;48.700;8.760;2023-08-06T03:45:20;16.60;77.80
70947;DHT22;58605;48.700;8.760;2023-08-06T03:47:46;16.90;76.70
70947;DHT22;58605;48.700;8.760;2023-08-06T03:50:12;16.80;76.70
70947;DHT22;58605;48.700;8.760;2023-08-06T03:52:39;16.70;76.90
70947;DHT22;58605;48.700;8.760;2023-08-06T03:55:05;16.60;77.50
70947;DHT22;58605;48.700;8.760;2023-08-06T03:57:32;16.60;78.10
70947;DHT22;58605;48.700;8.760;2023-08-06T03:59:58;16.70;76.90
70947;DHT22;58605;48.700;8.760;2023-08-06T04:02:24;16.70;76.40
70947;DHT22;58605;48.700;8.760;2023-08-06T04:04:50;16.70;75.90
70947;DHT22;58605;48.700;8.760;2023-08-06T04:07:16;16.50;77.00
70947;DHT22;58605;48.700;8.760;2023-08-06T04:09:59;16.40;77.80
70947;DHT22;58605;48.700;8.760;2023-08-06T04:12:26;16.40;78.10
70947;DHT22;58605;48.700;8.760;2023-08-06T04:14:53;16.40;78.50
70947;DHT22;58605;48.700;8.760;2023-08-06T04:17:20;16.40;78.90
70947;DHT22;58605;48.700;8.760;2023-08-06T04:19:47;16.40;78.10
70947;DHT22;58605;48.700;8.760;2023-08-06T04:22:13;16.50;78.20
70947;DHT22;58605;48.700;8.760;2023-08-06T04:24:40;16.50;78.60
70947;DHT22;58605;48.700;8.760;2023-08-06T04:27:08;16.50;78.70
70947;DHT22;58605;48.700;8.760;2023-08-06T04:29:34;16.40;77.50
70947;DHT22;58605;48.700;8.760;2023-08-06T04:32:00;16.20;76.70
70947;DHT22;58605;48.700;8.760;2023-08-06T04:34:26;16.00;77.40
70947;DHT22;58605;48.700;8.760;2023-08-06T04:36:52;15.70;78.20
70947;DHT22;58605;48.700;8.760;2023-08-06T04:39:18;15.80;78.50
70947;DHT22;58605;48.700;8.760;2023-08-06T04:41:45;15.80;79.40
70947;DHT22;58605;48.700;8.760;2023-08-06T04:44:12;15.90;79.40
70947;DHT22;58605;48.700;8.760;2023-08-06T04:46:38;16.10;79.30
70947;DHT22;58605;48.700;8.760;2023-08-06T04:49:04;16.30;78.40
70947;DHT22;58605;48.700;8.760;2023-08-06T04:51:30;16.50;78.00
70947;DHT22;58605;48.700;8.760;2023-08-06T04:53:57;16.40;78.10
70947;DHT22;58605;48.700;8.760;2023-08-06T04:56:23;16.30;79.00
70947;DHT22;58605;48.700;8.760;2023-08-06T04:58:50;16.20;79.50
70947;DHT22;58605;48.700;8.760;2023-08-06T05:01:17;16.20;79.70
70947;DHT22;58605;48.700;8.760;2023-08-06T05:03:43;16.10;79.90
70947;DHT22;58605;48.700;8.760;2023-08-06T05:06:09;16.10;80.10
70947;DHT22;58605;48.700;8.760;2023-08-06T05:08:36;16.10;79.40
70947;DHT22;58605;48.700;8.760;2023-08-06T05:11:02;16.10;78.80
70947;DHT22;58605;48.700;8.760;2023-08-06T05:13:28;16.20;78.90
70947;DHT22;58605;48.700;8.760;2023-08-06T05:15:54;16.20;78.20
70947;DHT22;58605;48.700;8.760;2023-08-06T05:18:22;16.20;78.10
70947;DHT22;58605;48.700;8.760;2023-08-06T05:20:48;16.20;77.90
70947;DHT22;58605;48.700;8.760;2023-08-06T05:23:14;16.20;77.50
70947;DHT22;58605;48.700;8.760;2023-08-06T05:25:40;16.20;77.80
70947;DHT22;58605;48.700;8.760;2023-08-06T05:28:06;16.20;77.70
70947;DHT22;58605;48.700;8.760;2023-08-06T05:30:33;16.20;77.70
70947;DHT22;58605;48.700;8.760;2023-08-06T05:32:59;16.20;77.80
70947;DHT22;58605;48.700;8.760;2023-08-06T05:35:26;16.20;77.70
70947;DHT22;58605;48.700;8.760;2023-08-06T05:37:53;16.20;77.70
70947;DHT22;58605;48.700;8.760;2023-08-06T05:40:19;16.10;77.90
70947;DHT22;58605;48.700;8.760;2023-08-06T05:42:45;16.10;78.20
70947;DHT22;58605;48.700;8.760;2023-08-06T05:45:11;16.10;78.10
70947;DHT22;58605;48.700;8.760;2023-08-06T05:47:37;16.10;78.10
70947;DHT22;58605;48.700;8.760;2023-08-06T05:50:04;16.10;78.20
70947;DHT22;58605;48.700;8.760;2023-08-06T05:52:32;16.10;78.20
70947;DHT22;58605;48.700;8.760;2023-08-06T05:54:58;16.10;78.30
70947;DHT22;58605;48.700;8.760;2023-08-06T05:57:24;16.20;78.00
70947;DHT22;58605;48.700;8.760;2023-08-06T05:59:50;16.20;78.00
70947;DHT22;58605;48.700;8.760;2023-08-06T06:02:16;16.30;78.00
70947;DHT22;58605;48.700;8.760;2023-08-06T06:04:44;16.30;77.90
70947;DHT22;58605;48.700;8.760;2023-08-06T06:07:10;16.20;78.10
70947;DHT22;58605;48.700;8.760;2023-08-06T06:09:38;16.30;78.00
70947;DHT22;58605;48.700;8.760;2023-08-06T06:12:06;16.30;77.90
70947;DHT22;58605;48.700;8.760;2023-08-06T06:14:32;16.20;77.70
70947;DHT22;58605;48.700;8.760;2023-08-06T06:16:59;16.20;77.80
70947;DHT22;58605;48.700;8.760;2023-08-06T06:19:25;16.20;77.90
70947;DHT22;58605;48.700;8.760;2023-08-06T06:21:52;16.20;77.90
70947;DHT22;58605;48.700;8.760;2023-08-06T06:24:18;16.20;78.10
70947;DHT22;58605;48.700;8.760;2023-08-06T06:26:46;16.20;78.10
70947;DHT22;58605;48.700;8.760;2023-08-06T06:29:13;16.20;78.20
70947;DHT22;58605;48.700;8.760;2023-08-06T06:31:39;16.20;78.10
70947;DHT22;58605;48.700;8.760;2023-08-06T06:34:05;16.20;78.40
70947;DHT22;58605;48.700;8.760;2023-08-06T06:36:31;16.20;78.20
70947;DHT22;58605;48.700;8.760;2023-08-06T06:38:57;16.30;77.90
70947;DHT22;58605;48.700;8.760;2023-08-06T06:41:23;16.20;78.60
70947;DHT22;58605;48.700;8.760;2023-08-06T06:43:51;16.30;78.70
70947;DHT22;58605;48.700;8.760;2023-08-06T06:46:17;16.20;78.50
70947;DHT22;58605;48.700;8.760;2023-08-06T06:48:43;16.20;78.70
70947;DHT22;58605;48.700;8.760;2023-08-06T06:51:09;16.20;79.00
70947;DHT22;58605;48.700;8.760;2023-08-06T06:53:35;16.10;78.70
70947;DHT22;58605;48.700;8.760;2023-08-06T06:56:03;16.10;79.20
70947;DHT22;58605;48.700;8.760;2023-08-06T06:58:30;16.10;79.20
70947;DHT22;58605;48.700;8.760;2023-08-06T07:00:58;16.10;79.10
70947;DHT22;58605;48.700;8.760;2023-08-06T07:03:24;16.10;79.30
70947;DHT22;58605;48.700;8.760;2023-08-06T07:05:50;16.00;79.50
70947;DHT22;58605;48.700;8.760;2023-08-06T07:08:17;16.00;79.40
70947;DHT22;58605;48.700;8.760;2023-08-06T07:10:43;16.00;79.50
70947;DHT22;58605;48.700;8.760;2023-08-06T07:13:09;16.10;79.60
70947;DHT22;58605;48.700;8.760;2023-08-06T07:15:36;16.10;79.60
70947;DHT22;58605;48.700;8.760;2023-08-06T07:18:03;16.10;79.60
70947;DHT22;58605;48.700;8.760;2023-08-06T07:20:29;16.10;79.80
70947;DHT22;58605;48.700;8.760;2023-08-06T07:22:57;16.10;79.30
70947;DHT22;58605;48.700;8.760;2023-08-06T07:25:24;16.20;79.20
70947;DHT22;58605;48.700;8.760;2023-08-06T07:27:50;16.20;79.30
70947;DHT22;58605;48.700;8.760;2023-08-06T07:30:16;16.10;79.60
70947;DHT22;58605;48.700;8.760;2023-08-06T07:32:42;16.10;79.30
70947;DHT22;58605;48.700;8.760;2023-08-06T07:35:10;16.00;79.40
70947;DHT22;58605;48.700;8.760;2023-08-06T07:37:38;16.00;79.60
70947;DHT22;58605;48.700;8.760;2023-08-06T07:40:05;16.00;79.80
70947;DHT22;58605;48.700;8.760;2023-08-06T07:42:31;16.00;80.10
70947;DHT22;58605;48.700;8.760;2023-08-06T07:44:58;16.10;79.80
70947;DHT22;58605;48.700;8.760;2023-08-06T07:47:24;16.10;79.90
70947;DHT22;58605;48.700;8.760;2023-08-06T07:49:51;16.10;79.40
70947;DHT22;58605;48.700;8.760;2023-08-06T07:52:18;16.10;79.70
70947;DHT22;58605;48.700;8.760;2023-08-06T07:54:44;16.10;79.70
70947;DHT22;58605;48.700;8.760;2023-08-06T07:57:10;16.10;80.00
70947;DHT22;58605;48.700;8.760;2023-08-06T07:59:36;16.20;79.30
70947;DHT22;58605;48.700;8.760;2023-08-06T08:02:03;16.20;79.30
70947;DHT22;58605;48.700;8.760;2023-08-06T08:04:29;16.20;79.50
70947;DHT22;58605;48.700;8.760;2023-08-06T08:06:56;16.20;79.50
70947;DHT22;58605;48.700;8.760;2023-08-06T08:09:23;16.10;79.50
70947;DHT22;58605;48.700;8.760;2023-08-06T08:11:49;16.10;79.60
70947;DHT22;58605;48.700;8.760;2023-08-06T08:14:16;16.10;79.50
70947;DHT22;58605;48.700;8.760;2023-08-06T08:16:42;16.20;79.30
70947;DHT22;58605;48.700;8.760;2023-08-06T08:19:08;16.20;79.50
70947;DHT22;58605;48.700;8.760;2023-08-06T08:21:35;16.20;79.60
70947;DHT22;58605;48.700;8.760;2023-08-06T08:24:01;16.10;79.70
70947;DHT22;58605;48.700;8.760;2023-08-06T08:26:29;16.20;79.90
70947;DHT22;58605;48.700;8.760;2023-08-06T08:28:55;16.20;79.50
70947;DHT22;58605;48.700;8.760;2023-08-06T08:31:22;16.20;79.60
70947;DHT22;58605;48.700;8.760;2023-08-06T08:33:48;16.20;79.80
70947;DHT22;58605;48.700;8.760;2023-08-06T08:36:14;16.20;80.00
70947;DHT22;58605;48.700;8.760;2023-08-06T08:38:41;16.10;80.00
70947;DHT22;58605;48.700;8.760;2023-08-06T08:41:10;16.10;80.20
70947;DHT22;58605;48.700;8.760;2023-08-06T08:43:38;16.10;80.00
70947;DHT22;58605;48.700;8.760;2023-08-06T08:46:06;16.10;80.00
70947;DHT22;58605;48.700;8.760;2023-08-06T08:48:34;16.10;80.20
70947;DHT22;58605;48.700;8.760;2023-08-06T08:51:01;16.10;80.60
70947;DHT22;58605;48.700;8.760;2023-08-06T08:53:57;16.10;80.70
70947;DHT22;58605;48.700;8.760;2023-08-06T08:56:23;16.10;80.70
70947;DHT22;58605;48.700;8.760;2023-08-06T08:58:51;16.10;80.20
70947;DHT22;58605;48.700;8.760;2023-08-06T09:01:28;16.10;80.40
70947;DHT22;58605;48.700;8.760;2023-08-06T09:03:55;16.10;80.70
70947;DHT22;58605;48.700;8.760;2023-08-06T09:06:21;16.10;80.00
70947;DHT22;58605;48.700;8.760;2023-08-06T09:08:53;16.10;80.50
70947;DHT22;58605;48.700;8.760;2023-08-06T09:11:22;16.10;80.40
70947;DHT22;58605;48.700;8.760;2023-08-06T09:13:50;16.10;80.40
70947;DHT22;58605;48.700;8.760;2023-08-06T09:16:16;16.00;80.30
70947;DHT22;58605;48.700;8.760;2023-08-06T09:18:42;16.00;80.60
70947;DHT22;58605;48.700;8.760;2023-08-06T09:21:14;16.00;80.60
70947;DHT22;58605;48.700;8.760;2023-08-06T09:23:41;16.00;80.60
70947;DHT22;58605;48.700;8.760;2023-08-06T09:26:07;16.00;80.50
70947;DHT22;58605;48.700;8.760;2023-08-06T09:28:37;16.00;80.50
70947;DHT22;58605;48.700;8.760;2023-08-06T09:31:09;16.00;79.70
70947;DHT22;58605;48.700;8.760;2023-08-06T09:33:37;16.00;79.70
70947;DHT22;58605;48.700;8.760;2023-08-06T09:36:08;15.90;80.20
70947;DHT22;58605;48.700;8.760;2023-08-06T09:38:38;15.90;81.00
70947;DHT22;58605;48.700;8.760;2023-08-06T09:41:05;15.90;79.90
70947;DHT22;58605;48.700;8.760;2023-08-06T09:43:39;15.90;80.10
70947;DHT22;58605;48.700;8.760;2023-08-06T09:46:12;15.90;80.10
70947;DHT22;58605;48.700;8.760;2023-08-06T09:48:39;15.90;80.20
70947;DHT22;58605;48.700;8.760;2023-08-06T09:51:08;15.90;80.60
70947;DHT22;58605;48.700;8.760;2023-08-06T09:53:36;15.90;80.40
70947;DHT22;58605;48.700;8.760;2023-08-06T09:56:03;15.90;81.10
70947;DHT22;58605;48.700;8.760;2023-08-06T09:58:31;15.80;80.90
70947;DHT22;58605;48.700;8.760;2023-08-06T10:00:58;15.90;81.40
70947;DHT22;58605;48.700;8.760;2023-08-06T10:03:34;15.90;81.10
70947;DHT22;58605;48.700;8.760;2023-08-06T10:06:00;15.90;81.10
70947;DHT22;58605;48.700;8.760;2023-08-06T10:08:28;15.90;81.10
70947;DHT22;58605;48.700;8.760;2023-08-06T10:10:54;16.00;81.20
70947;DHT22;58605;48.700;8.760;2023-08-06T10:13:21;16.00;81.40
70947;DHT22;58605;48.700;8.760;2023-08-06T10:15:49;15.90;81.00
70947;DHT22;58605;48.700;8.760;2023-08-06T10:18:16;15.80;81.30
70947;DHT22;58605;48.700;8.760;2023-08-06T10:20:48;15.90;82.00
70947;DHT22;58605;48.700;8.760;2023-08-06T10:23:14;15.90;81.20
70947;DHT22;58605;48.700;8.760;2023-08-06T10:25:43;16.00;81.80
70947;DHT22;58605;48.700;8.760;2023-08-06T10:28:09;15.90;81.20
70947;DHT22;58605;48.700;8.760;2023-08-06T10:30:42;15.80;81.60
70947;DHT22;58605;48.700;8.760;2023-08-06T10:33:08;15.70;81.00
70947;DHT22;58605;48.700;8.760;2023-08-06T10:35:36;15.70;80.90
70947;DHT22;58605;48.700;8.760;2023-08-06T10:38:08;15.60;81.00
70947;DHT22;58605;48.700;8.760;2023-08-06T10:40:35;15.50;80.70
70947;DHT22;58605;48.700;8.760;2023-08-06T10:43:03;15.60;80.90
70947;DHT22;58605;48.700;8.760;2023-08-06T10:45:29;15.60;80.80
70947;DHT22;58605;48.700;8.760;2023-08-06T10:47:57;15.70;81.40
70947;DHT22;58605;48.700;8.760;2023-08-06T10:50:24;15.60;81.40
70947;DHT22;58605;48.700;8.760;2023-08-06T10:52:50;15.70;81.90
70947;DHT22;58605;48.700;8.760;2023-08-06T10:55:24;15.70;81.20
70947;DHT22;58605;48.700;8.760;2023-08-06T10:57:51;15.70;81.90
70947;DHT22;58605;48.700;8.760;2023-08-06T11:00:17;15.70;81.10
70947;DHT22;58605;48.700;8.760;2023-08-06T11:02:43;15.60;80.60
70947;DHT22;58605;48.700;8.760;2023-08-06T11:05:12;15.70;80.40
70947;DHT22;58605;48.700;8.760;2023-08-06T11:07:38;15.80;79.30
70947;DHT22;58605;48.700;8.760;2023-08-06T11:10:06;15.80;79.00
70947;DHT22;58605;48.700;8.760;2023-08-06T11:12:34;15.70;78.40
70947;DHT22;58605;48.700;8.760;2023-08-06T11:15:01;15.50;79.30
70947;DHT22;58605;48.700;8.760;2023-08-06T11:17:28;15.50;78.90
70947;DHT22;58605;48.700;8.760;2023-08-06T11:19:54;15.60;79.20
70947;DHT22;58605;48.700;8.760;2023-08-06T11:22:21;15.50;79.00
70947;DHT22;58605;48.700;8.760;2023-08-06T11:24:47;15.40;79.30
70947;DHT22;58605;48.700;8.760;2023-08-06T11:27:14;15.30;79.30
70947;DHT22;58605;48.700;8.760;2023-08-06T11:29:42;15.30;79.60
70947;DHT22;58605;48.700;8.760;2023-08-06T11:32:08;15.30;79.30
70947;DHT22;58605;48.700;8.760;2023-08-06T11:34:35;15.30;78.90
70947;DHT22;58605;48.700;8.760;2023-08-06T11:37:03;15.30;79.30
70947;DHT22;58605;48.700;8.760;2023-08-06T11:39:37;15.50;78.00
70947;DHT22;58605;48.700;8.760;2023-08-06T11:42:04;15.40;78.20
70947;DHT22;58605;48.700;8.760;2023-08-06T11:44:30;15.50;78.50
70947;DHT22;58605;48.700;8.760;2023-08-06T11:47:02;15.50;77.70
70947;DHT22;58605;48.700;8.760;2023-08-06T11:49:38;15.40;77.80
70947;DHT22;58605;48.700;8.760;2023-08-06T11:52:09;15.30;78.00
70947;DHT22;58605;48.700;8.760;2023-08-06T11:54:35;15.40;78.30
70947;DHT22;58605;48.700;8.760;2023-08-06T11:57:03;15.30;78.10
70947;DHT22;58605;48.700;8.760;2023-08-06T11:59:30;15.40;76.90
70947;DHT22;58605;48.700;8.760;2023-08-06T12:01:56;15.50;77.80
70947;DHT22;58605;48.700;8.760;2023-08-06T12:04:24;15.60;76.70
70947;DHT22;58605;48.700;8.760;2023-08-06T12:06:50;15.40;76.90
70947;DHT22;58605;48.700;8.760;2023-08-06T12:09:16;15.40;76.50
70947;DHT22;58605;48.700;8.760;2023-08-06T12:11:42;15.50;76.80
70947;DHT22;58605;48.700;8.760;2023-08-06T12:14:08;15.50;76.80
70947;DHT22;58605;48.700;8.760;2023-08-06T12:16:35;15.40;76.40
70947;DHT22;58605;48.700;8.760;2023-08-06T12:19:01;15.50;77.60
70947;DHT22;58605;48.700;8.760;2023-08-06T12:21:29;15.30;78.10
70947;DHT22;58605;48.700;8.760;2023-08-06T12:23:55;15.30;78.30
70947;DHT22;58605;48.700;8.760;2023-08-06T12:26:21;15.20;78.70
70947;DHT22;58605;48.700;8.760;2023-08-06T12:28:47;15.20;78.60
70947;DHT22;58605;48.700;8.760;2023-08-06T12:31:15;15.10;79.00
70947;DHT22;58605;48.700;8.760;2023-08-06T12:33:41;15.20;78.70
70947;DHT22;58605;48.700;8.760;2023-08-06T12:36:07;15.30;78.20
70947;DHT22;58605;48.700;8.760;2023-08-06T12:38:34;15.30;77.90
70947;DHT22;58605;48.700;8.760;2023-08-06T12:41:01;15.20;77.70
70947;DHT22;58605;48.700;8.760;2023-08-06T12:43:27;15.20;78.50
70947;DHT22;58605;48.700;8.760;2023-08-06T12:45:53;15.10;78.30
70947;DHT22;58605;48.700;8.760;2023-08-06T12:48:19;15.20;77.40
70947;DHT22;58605;48.700;8.760;2023-08-06T12:50:45;15.20;77.30
70947;DHT22;58605;48.700;8.760;2023-08-06T12:53:11;15.30;77.20
70947;DHT22;58605;48.700;8.760;2023-08-06T12:55:39;15.30;77.40
70947;DHT22;58605;48.700;8.760;2023-08-06T12:58:06;15.40;78.60
70947;DHT22;58605;48.700;8.760;2023-08-06T13:00:32;15.50;78.30
70947;DHT22;58605;48.700;8.760;2023-08-06T13:02:59;15.60;78.70
70947;DHT22;58605;48.700;8.760;2023-08-06T13:05:25;15.60;77.70
70947;DHT22;58605;48.700;8.760;2023-08-06T13:07:51;15.70;78.10
70947;DHT22;58605;48.700;8.760;2023-08-06T13:10:18;15.70;77.20
70947;DHT22;58605;48.700;8.760;2023-08-06T13:12:46;15.80;76.90
70947;DHT22;58605;48.700;8.760;2023-08-06T13:15:12;15.70;78.10
70947;DHT22;58605;48.700;8.760;2023-08-06T13:17:40;15.70;77.30
70947;DHT22;58605;48.700;8.760;2023-08-06T13:20:07;15.60;77.50
70947;DHT22;58605;48.700;8.760;2023-08-06T13:22:33;15.60;77.80
70947;DHT22;58605;48.700;8.760;2023-08-06T13:24:59;15.60;78.00
70947;DHT22;58605;48.700;8.760;2023-08-06T13:27:25;15.50;78.10
70947;DHT22;58605;48.700;8.760;2023-08-06T13:29:53;15.60;78.90
70947;DHT22;58605;48.700;8.760;2023-08-06T13:32:19;15.60;77.90
70947;DHT22;58605;48.700;8.760;2023-08-06T13:34:45;15.60;77.50
70947;DHT22;58605;48.700;8.760;2023-08-06T13:37:11;15.50;77.30
70947;DHT22;58605;48.700;8.760;2023-08-06T13:39:38;15.60;78.00
70947;DHT22;58605;48.700;8.760;2023-08-06T13:42:04;15.60;76.10
70947;DHT22;58605;48.700;8.760;2023-08-06T13:44:30;15.60;76.80
70947;DHT22;58605;48.700;8.760;2023-08-06T13:47:03;15.70;75.70
70947;DHT22;58605;48.700;8.760;2023-08-06T13:49:29;15.80;75.60
70947;DHT22;58605;48.700;8.760;2023-08-06T13:51:55;15.80;74.70
70947;DHT22;58605;48.700;8.760;2023-08-06T13:54:21;15.80;74.90
70947;DHT22;58605;48.700;8.760;2023-08-06T13:56:47;15.80;75.20
70947;DHT22;58605;48.700;8.760;2023-08-06T13:59:13;15.80;75.10
70947;DHT22;58605;48.700;8.760;2023-08-06T14:01:40;15.80;74.60
70947;DHT22;58605;48.700;8.760;2023-08-06T14:04:08;15.90;74.60
70947;DHT22;58605;48.700;8.760;2023-08-06T14:06:34;15.90;74.90
70947;DHT22;58605;48.700;8.760;2023-08-06T14:09:00;16.00;75.00
70947;DHT22;58605;48.700;8.760;2023-08-06T14:11:26;15.80;75.60
70947;DHT22;58605;48.700;8.760;2023-08-06T14:13:52;15.80;76.30
70947;DHT22;58605;48.700;8.760;2023-08-06T14:16:18;15.70;77.10
70947;DHT22;58605;48.700;8.760;2023-08-06T14:18:44;15.60;77.70
70947;DHT22;58605;48.700;8.760;2023-08-06T14:21:12;15.70;76.90
70947;DHT22;58605;48.700;8.760;2023-08-06T14:23:38;15.80;77.20
70947;DHT22;58605;48.700;8.760;2023-08-06T14:26:07;15.90;76.10
70947;DHT22;58605;48.700;8.760;2023-08-06T14:28:33;15.70;76.60
70947;DHT22;58605;48.700;8.760;2023-08-06T14:30:59;15.70;76.80
70947;DHT22;58605;48.700;8.760;2023-08-06T14:33:25;15.70;76.20
70947;DHT22;58605;48.700;8.760;2023-08-06T14:35:51;15.70;77.30
70947;DHT22;58605;48.700;8.760;2023-08-06T14:38:20;15.70;76.40
70947;DHT22;58605;48.700;8.760;2023-08-06T14:40:46;15.80;75.50
70947;DHT22;58605;48.700;8.760;2023-08-06T14:43:12;15.80;76.00
70947;DHT22;58605;48.700;8.760;2023-08-06T14:45:38;15.80;76.00
70947;DHT22;58605;48.700;8.760;2023-08-06T14:48:05;15.70;75.50
70947;DHT22;58605;48.700;8.760;2023-08-06T14:50:31;15.70;75.20
70947;DHT22;58605;48.700;8.760;2023-08-06T14:52:57;15.70;75.70
70947;DHT22;58605;48.700;8.760;2023-08-06T14:55:28;15.60;76.70
70947;DHT22;58605;48.700;8.760;2023-08-06T14:57:54;15.50;76.50
70947;DHT22;58605;48.700;8.760;2023-08-06T15:00:20;15.50;77.10
70947;DHT22;58605;48.700;8.760;2023-08-06T15:02:46;15.50;76.80
70947;DHT22;58605;48.700;8.760;2023-08-06T15:05:12;15.40;77.50
70947;DHT22;58605;48.700;8.760;2023-08-06T15:07:38;15.40;77.60
70947;DHT22;58605;48.700;8.760;2023-08-06T15:10:06;15.50;78.50
70947;DHT22;58605;48.700;8.760;2023-08-06T15:12:34;15.40;78.60
70947;DHT22;58605;48.700;8.760;2023-08-06T15:15:00;15.40;78.80
70947;DHT22;58605;48.700;8.760;2023-08-06T15:17:28;15.50;78.80
70947;DHT22;58605;48.700;8.760;2023-08-06T15:19:56;15.60;79.40
70947;DHT22;58605;48.700;8.760;2023-08-06T15:22:23;15.60;78.00
70947;DHT22;58605;48.700;8.760;2023-08-06T15:24:49;15.60;78.40
70947;DHT22;58605;48.700;8.760;2023-08-06T15:27:15;15.70;78.30
70947;DHT22;58605;48.700;8.760;2023-08-06T15:29:44;15.80;77.60